Latest Weather Observations for Edinburgh

IDS60901

Issued at 3:01 pm CST Monday 29 August 2016 (issued every 10 minutes, with the page automatically refreshed every 10 minutes)

About weather observations | Map of Adelaide area stations | Latest observations for Adelaide area | Other Formats
Station Details ID: 023083 Name: EDINBURGH RAAF Lat: -34.71 Lon: 138.62 Height: 16.54 m
Data from the previous 72 hours. | See also: Recent months at Edinburgh
Date/Time
CST
Temp
°C
App
Temp
°C
Dew
Point
°C
Rel
Hum
%
Delta-T
°C
Wind Press
QNH
hPa
Press
MSL
hPa
Rain since
9am
mm
Dir  Spd
km/h
Gust
km/h
Spd
kts
Gust
kts
29/03:00pm 18.4 12.7 6.9 47 5.8 NE 26 35 14 19 1011.6 1011.6 0.0
29/02:30pm 18.6 11.7 6.4 45 6.1 NE 32 43 17 23 1012.0 1012.0 0.0
29/02:20pm 18.7 11.7 5.9 43 6.3 NE 32 50 17 27 1012.1 1012.1 0.0
29/02:00pm 18.8 11.7 6.6 45 6.1 NE 33 46 18 25 1011.8 1011.8 0.0
29/01:30pm 19.0 11.2 6.8 45 6.1 NE 37 46 20 25 1012.1 1012.1 0.0
29/01:00pm 19.8 13.1 8.2 47 6.0 NE 33 44 18 24 1012.5 1012.5 0.0
29/12:30pm 19.4 12.1 7.2 45 6.2 NE 35 48 19 26 1013.0 1013.0 0.0
29/12:00pm 18.6 10.9 7.1 47 5.8 ENE 37 48 20 26 1013.2 1013.2 0.0
29/11:30am 16.9 9.8 6.4 50 5.2 NE 33 43 18 23 1013.9 1013.9 0.0
29/11:00am 18.0 10.6 6.8 48 5.6 NE 35 46 19 25 1014.4 1014.4 0.0
29/10:30am 16.2 9.7 6.6 53 4.7 NE 30 35 16 19 1015.0 1015.0 0.0
29/10:00am 15.8 9.6 6.3 53 4.6 ENE 28 35 15 19 1014.8 1014.8 0.0
29/09:30am 13.9 8.6 7.0 63 3.4 NE 24 32 13 17 1016.2 1016.2 0.0
29/09:00am 13.6 7.7 6.0 60 3.6 NE 26 33 14 18 1016.4 1016.4 1.0
29/08:30am 13.3 7.8 5.9 61 3.5 NE 24 28 13 15 1016.4 1016.4 1.0
29/08:00am 13.2 6.9 5.6 60 3.6 NE 28 35 15 19 1016.2 1016.2 1.0
29/07:30am 13.9 7.8 5.0 55 4.1 NE 26 33 14 18 1015.6 1015.6 1.0
29/07:00am 13.4 7.7 5.1 57 3.9 NE 24 32 13 17 1015.0 1015.0 1.0
29/06:30am 13.7 8.5 5.6 58 3.8 NE 22 30 12 16 1015.0 1015.0 1.0
29/06:00am 13.3 8.8 5.9 61 3.5 NE 19 22 10 12 1015.0 1015.0 0.8
29/05:30am 12.2 9.8 6.9 70 2.5 NNE 9 11 5 6 1015.0 1015.0 0.8
29/05:00am 12.6 9.1 7.3 70 2.6 NE 15 17 8 9 1014.6 1014.6 0.8
29/04:30am 13.0 9.5 7.2 68 2.8 NE 15 17 8 9 1014.5 1014.5 0.8
29/04:00am 12.2 8.7 7.3 72 2.4 NE 15 19 8 10 1014.4 1014.4 0.8
29/03:30am 12.9 8.8 6.3 64 3.1 E 17 26 9 14 1014.5 1014.5 0.8
29/03:00am 12.6 9.1 7.1 69 2.7 ENE 15 20 8 11 1015.4 1015.4 0.8
29/02:30am 12.9 8.4 6.3 64 3.1 NE 19 20 10 11 1016.0 1016.0 0.4
29/02:00am 13.9 9.0 5.0 55 4.1 ENE 20 26 11 14 1015.6 1015.6 0.2
29/01:30am 13.7 9.9 5.6 58 3.8 ENE 15 17 8 9 1016.0 1016.0 0.2
29/01:00am 14.0 9.4 5.4 56 4.0 ENE 19 26 10 14 1015.8 1015.8 0.2
29/12:30am 15.6 9.7 1.7 39 6.1 NE 22 28 12 15 1015.9 1015.9 0.0
29/12:00am 16.1 9.7 1.0 36 6.6 NE 24 32 13 17 1015.5 1015.5 0.0
 
Date/Time
CST
Temp
°C
App
Temp
°C
Dew
Point
°C
Rel
Hum
%
Delta-T
°C
Wind Press
QNH
hPa
Press
MSL
hPa
Rain since
9am
mm
Dir  Spd
km/h
Gust
km/h
Spd
kts
Gust
kts
28/11:30pm 16.1 9.0 1.4 37 6.5 NE 28 35 15 19 1015.2 1015.2 0.0
28/11:00pm 16.4 8.9 0.9 35 6.8 NE 30 39 16 21 1015.1 1015.1 0.0
28/10:30pm 15.9 8.8 1.6 38 6.3 NE 28 37 15 20 1015.4 1015.4 0.0
28/10:00pm 16.0 9.3 1.7 38 6.3 NE 26 35 14 19 1015.4 1015.4 0.0
28/09:30pm 15.7 9.5 2.2 40 6.0 NE 24 30 13 16 1015.4 1015.4 0.0
28/09:00pm 15.8 9.7 2.9 42 5.8 NE 24 32 13 17 1015.0 1015.0 0.0
28/08:30pm 15.9 9.8 2.7 41 5.9 NE 24 32 13 17 1014.9 1014.9 0.0
28/08:00pm 15.3 10.1 3.5 45 5.4 NE 20 26 11 14 1015.1 1015.1 0.0
28/07:30pm 15.0 9.8 3.8 47 5.1 NE 20 24 11 13 1014.8 1014.8 0.0
28/07:00pm 15.0 10.1 4.1 48 5.0 NE 19 22 10 12 1014.6 1014.6 0.0
28/06:30pm 14.8 10.4 4.5 50 4.8 NE 17 20 9 11 1014.3 1014.3 0.0
28/06:00pm 16.5 11.6 4.2 44 5.8 NE 19 22 10 12 1013.9 1013.9 0.0
28/05:30pm 17.4 12.6 4.4 42 6.1 NE 19 24 10 13 1013.7 1013.7 0.0
28/05:00pm 18.9 13.7 3.5 36 7.2 NE 20 28 11 15 1013.3 1013.3 0.0
28/04:30pm 19.2 12.2 4.2 37 7.2 NE 30 43 16 23 1013.1 1013.1 0.0
28/04:00pm 19.6 12.0 4.1 36 7.4 NNE 33 43 18 23 1013.5 1013.5 0.0
28/03:30pm 20.2 14.2 5.4 38 7.3 NE 26 37 14 20 1013.7 1013.7 0.0
28/03:00pm 20.5 14.6 5.7 38 7.3 NNE 26 32 14 17 1013.8 1013.8 0.0
28/02:30pm 20.6 14.4 6.2 39 7.2 N 28 35 15 19 1014.0 1014.0 0.0
28/02:00pm 20.4 12.9 6.4 40 7.0 NNE 35 46 19 25 1014.2 1014.2 0.0
28/01:30pm 20.1 12.7 6.8 42 6.7 NNE 35 44 19 24 1014.8 1014.8 0.0
28/01:00pm 19.6 12.0 6.0 41 6.7 NNE 35 44 19 24 1015.4 1015.4 0.0
28/12:30pm 18.8 11.5 5.6 42 6.5 NNE 33 43 18 23 1016.0 1016.0 0.0
28/12:00pm 19.0 12.6 7.1 46 6.0 NNE 30 37 16 20 1016.5 1016.5 0.0
28/11:30am 18.5 12.1 5.4 42 6.4 NNE 28 37 15 20 1017.1 1017.1 0.0
28/11:00am 18.2 12.2 5.1 42 6.3 NNE 26 33 14 18 1017.4 1017.4 0.0
28/10:30am 18.0 12.0 5.2 43 6.2 NNE 26 33 14 18 1017.5 1017.5 0.0
28/10:00am 17.5 11.6 5.8 46 5.7 NE 26 32 14 17 1017.8 1017.8 0.0
28/09:30am 16.7 10.1 4.4 44 5.8 NE 28 41 15 22 1017.9 1017.9 0.0
28/09:00am 16.1 10.6 4.2 45 5.5 NE 22 30 12 16 1017.9 1017.9 0.0
28/08:30am 15.2 9.6 3.4 45 5.4 NE 22 28 12 15 1018.1 1018.1 0.0
28/08:00am 14.0 8.4 3.2 48 4.8 NE 22 30 12 16 1018.0 1018.0 0.0
28/07:30am 11.5 7.3 3.8 59 3.4 NE 15 19 8 10 1018.2 1018.2 0.0
28/07:00am 9.8 5.1 2.9 62 3.0 NE 17 19 9 10 1017.8 1017.8 0.0
28/06:30am 9.2 4.4 2.8 64 2.7 NE 17 19 9 10 1017.6 1017.6 0.0
28/06:00am 8.5 4.1 2.5 66 2.5 NE 15 19 8 10 1017.4 1017.4 0.0
28/05:30am 8.7 4.3 2.7 66 2.5 NE 15 17 8 9 1017.4 1017.4 0.0
28/05:00am 8.3 4.2 2.3 66 2.5 NE 13 17 7 9 1017.2 1017.2 0.0
28/04:30am 8.8 4.8 2.6 65 2.6 NE 13 17 7 9 1017.0 1017.0 0.0
28/04:00am 9.8 5.8 3.1 63 2.9 NE 13 17 7 9 1017.0 1017.0 0.0
28/03:30am 10.8 6.1 3.4 60 3.2 NE 17 22 9 12 1017.1 1017.1 0.0
28/03:00am 10.5 5.8 3.3 61 3.1 NE 17 19 9 10 1017.5 1017.5 0.0
28/02:30am 9.9 5.7 3.9 66 2.6 NE 15 17 8 9 1018.0 1018.0 0.0
28/02:00am 10.3 5.7 3.8 64 2.9 NE 17 19 9 10 1018.3 1018.3 0.0
28/01:30am 11.4 6.9 4.4 62 3.1 NE 17 19 9 10 1018.2 1018.2 0.0
28/01:00am 10.9 6.8 4.4 64 2.9 NE 15 17 8 9 1018.5 1018.5 0.0
28/12:30am 10.6 6.1 4.3 65 2.8 NE 17 19 9 10 1018.4 1018.4 0.0
28/12:00am 10.6 6.5 4.1 64 2.9 NE 15 19 8 10 1018.4 1018.4 0.0
 
Date/Time
CST
Temp
°C
App
Temp
°C
Dew
Point
°C
Rel
Hum
%
Delta-T
°C
Wind Press
QNH
hPa
Press
MSL
hPa
Rain since
9am
mm
Dir  Spd
km/h
Gust
km/h
Spd
kts
Gust
kts
27/11:30pm 11.1 6.6 4.1 62 3.1 NE 17 20 9 11 1018.5 1018.5 0.0
27/11:00pm 11.3 7.2 4.3 62 3.1 NE 15 19 8 10 1018.4 1018.4 0.0
27/10:30pm 11.1 6.7 4.6 64 2.9 NE 17 20 9 11 1018.6 1018.6 0.0
27/10:00pm 11.4 6.9 4.4 62 3.2 NE 17 19 9 10 1018.9 1018.9 0.0
27/09:30pm 11.6 7.1 4.3 61 3.3 NE 17 20 9 11 1019.1 1019.1 0.0
27/09:00pm 12.1 7.7 4.8 61 3.3 NE 17 20 9 11 1019.2 1019.2 0.0
27/08:30pm 12.3 8.4 5.2 62 3.3 NE 15 19 8 10 1019.2 1019.2 0.0
27/08:00pm 12.8 8.9 5.5 61 3.4 ENE 15 19 8 10 1019.1 1019.1 0.0
27/07:30pm 12.5 9.1 6.1 65 3.0 NE 13 17 7 9 1019.3 1019.3 0.0
27/07:00pm 12.2 9.3 6.3 67 2.8 NE 11 15 6 8 1019.1 1019.1 0.0
27/06:30pm 12.7 9.3 5.8 63 3.2 NNE 13 17 7 9 1018.9 1018.9 0.0
27/06:00pm 13.9 11.8 6.5 61 3.6 N 7 9 4 5 1018.7 1018.7 0.0
27/05:30pm 14.0 11.0 6.1 59 3.8 N 11 11 6 6 1018.3 1018.3 0.0
27/05:00pm 15.5 11.6 5.4 51 4.8 NNW 15 22 8 12 1018.3 1018.3 0.0
27/04:30pm 16.5 11.4 4.2 44 5.7 NNW 20 28 11 15 1018.2 1018.2 0.0
27/04:00pm 16.8 11.0 4.2 43 5.9 NNW 24 30 13 16 1018.4 1018.4 0.0
27/03:30pm 17.7 11.4 3.6 39 6.6 NNW 26 33 14 18 1018.6 1018.6 0.0
27/03:00pm 17.6 11.5 2.8 37 6.8 NW 24 33 13 18 1018.8 1018.8 0.0
27/02:30pm 18.2 13.0 5.4 43 6.2 NNW 22 28 12 15 1018.9 1018.9 0.0
27/02:00pm 17.5 12.0 6.1 47 5.6 NNW 24 33 13 18 1019.5 1019.5 0.0
27/01:30pm 16.6 10.1 4.9 46 5.5 NNW 28 35 15 19 1019.9 1019.9 0.0
27/01:00pm 16.6 11.0 5.6 48 5.3 N 24 33 13 18 1020.2 1020.2 0.0
27/12:30pm 15.9 10.3 5.5 50 5.0 NNW 24 35 13 19 1020.9 1020.9 0.0
27/12:00pm 15.6 9.1 4.9 49 5.0 NNW 28 37 15 20 1021.5 1021.5 0.0
27/11:30am 15.4 9.7 4.8 49 5.0 NNW 24 33 13 18 1022.1 1022.1 0.0
27/11:00am 15.6 10.0 5.2 50 4.9 NNW 24 37 13 20 1022.3 1022.3 0.0
27/10:30am 14.5 9.6 5.0 53 4.4 N 20 28 11 15 1022.2 1022.2 0.0
27/10:00am 13.8 9.7 6.2 60 3.6 N 17 22 9 12 1022.4 1022.4 0.0
27/09:30am 12.6 8.4 5.5 62 3.3 N 17 24 9 13 1022.8 1022.8 0.0
27/09:00am 11.1 6.5 5.6 69 2.5 NNE 19 22 10 12 1023.0 1023.0 0.0
27/08:30am 9.6 5.2 4.8 72 2.1 NNE 17 22 9 12 1023.2 1023.2 0.0
27/08:00am 7.7 3.1 3.9 77 1.6 NE 17 20 9 11 1022.8 1022.8 0.0
27/07:30am 7.2 2.6 3.8 79 1.4 NE 17 20 9 11 1022.7 1022.7 0.0
27/07:00am 5.9 1.6 3.1 82 1.2 NE 15 17 8 9 1022.6 1022.6 0.0
27/06:30am 4.3 0.2 2.0 85 0.9 NE 13 15 7 8 1022.5 1022.5 0.0
27/06:00am 4.2 0.0 1.9 85 0.9 NE 13 15 7 8 1022.3 1022.3 0.0
27/05:30am 3.9 -0.3 1.8 86 0.8 NE 13 15 7 8 1022.2 1022.2 0.0
27/05:00am 3.2 -0.7 0.9 85 0.9 NE 11 13 6 7 1022.3 1022.3 0.0
27/04:30am 3.7 -0.5 1.6 86 0.8 NE 13 13 7 7 1022.4 1022.4 0.0
27/04:00am 4.1 0.3 2.0 86 0.8 ENE 11 13 6 7 1022.3 1022.3 0.0
27/03:30am 3.6 -0.2 1.5 86 0.8 NE 11 15 6 8 1022.5 1022.5 0.0
27/03:00am 3.5 -0.4 1.2 85 0.9 NE 11 13 6 7 1022.7 1022.7 0.0
27/02:30am 3.8 -0.1 1.4 84 0.9 NE 11 13 6 7 1023.0 1023.0 0.0
27/02:00am 4.3 0.9 1.8 84 1.0 NE 9 9 5 5 1023.1 1023.1 0.0
27/01:30am 4.1 0.7 1.6 84 1.0 NE 9 13 5 7 1023.3 1023.3 0.0
27/01:00am 4.0 0.2 1.7 85 0.9 ENE 11 13 6 7 1023.2 1023.2 0.0
27/12:30am 4.2 0.4 1.9 85 0.9 NE 11 11 6 6 1023.3 1023.3 0.0
27/12:00am 4.5 0.8 2.4 86 0.8 NE 11 13 6 7 1023.5 1023.5 0.0
 
Date/Time
CST
Temp
°C
App
Temp
°C
Dew
Point
°C
Rel
Hum
%
Delta-T
°C
Wind Press
QNH
hPa
Press
MSL
hPa
Rain since
9am
mm
Dir  Spd
km/h
Gust
km/h
Spd
kts
Gust
kts
26/11:30pm 4.9 1.2 2.6 85 0.9 ENE 11 13 6 7 1023.8 1023.8 0.0
26/11:00pm 4.0 0.5 1.5 84 1.0 NE 9 11 5 6 1024.2 1024.2 0.0
26/10:30pm 5.4 2.1 2.4 81 1.2 ENE 9 9 5 5 1024.3 1024.3 0.0
26/10:00pm 6.0 3.2 3.2 82 1.2 ENE 7 9 4 5 1024.5 1024.5 0.0
26/09:30pm 5.8 2.3 3.3 84 1.0 ENE 11 13 6 7 1024.5 1024.5 0.0
26/09:00pm 5.3 1.7 2.7 83 1.1 NNE 11 13 6 7 1024.5 1024.5 0.0
26/08:30pm 7.2 4.4 3.4 77 1.6 ENE 7 9 4 5 1024.5 1024.5 0.0
26/08:00pm 8.0 5.1 4.4 78 1.6 ENE 9 9 5 5 1024.5 1024.5 0.0
26/07:30pm 8.6 7.0 4.4 75 1.8 W 2 7 1 4 1024.4 1024.4 0.0
26/07:00pm 8.3 5.3 3.9 74 1.9 NW 9 9 5 5 1024.3 1024.3 0.0
26/06:30pm 10.2 8.9 3.9 65 2.8 CALM 0 4 0 2 1024.1 1024.1 0.0
26/06:00pm 10.5 8.0 4.9 68 2.5 WSW 7 9 4 5 1023.8 1023.8 0.0
26/05:30pm 12.3 9.4 4.8 60 3.4 W 9 11 5 6 1023.6 1023.6 0.0
26/05:00pm 12.4 9.0 3.9 56 3.8 W 11 13 6 7 1023.6 1023.6 0.0
26/04:30pm 13.1 9.8 2.4 48 4.7 W 9 13 5 7 1023.3 1023.3 0.0
26/04:00pm 13.1 10.4 2.6 49 4.6 SW 6 9 3 5 1023.4 1023.4 0.0
26/03:30pm 13.7 10.5 2.9 48 4.8 SW 9 17 5 9 1023.4 1023.4 0.0

Latest Capital City Observations: Canberra | Sydney | Melbourne | Brisbane | Adelaide | Perth | Hobart | Darwin

Other Formats:

Comma delimited format used in spreadsheet applications
http://www.bom.gov.au/fwo/IDS60901/IDS60901.95676.axf

JavaScript Object Notation format (JSON) in row-major order
http://www.bom.gov.au/fwo/IDS60901/IDS60901.95676.json